Map

Track Data

SID SEASON NUMBER BASIN SUBBASIN NAME ISO_TIME NATURE LAT LON WMO_WIND WMO_PRES WMO_AGENCY TRACK_TYPE DIST2LAND LANDFALL IFLAG USA_AGENCY USA_ATCF_ID USA_LAT USA_LON USA_RECORD USA_STATUS USA_WIND USA_PRES USA_SSHS USA_R34_NE USA_R34_SE USA_R34_SW USA_R34_NW USA_R50_NE USA_R50_SE USA_R50_SW USA_R50_NW USA_R64_NE USA_R64_SE USA_R64_SW USA_R64_NW USA_POCI USA_ROCI USA_RMW USA_EYE TOKYO_LAT TOKYO_LON TOKYO_GRADE TOKYO_WIND TOKYO_PRES TOKYO_R50_DIR TOKYO_R50_LONG TOKYO_R50_SHORT TOKYO_R30_DIR TOKYO_R30_LONG TOKYO_R30_SHORT TOKYO_LAND CMA_LAT CMA_LON CMA_CAT CMA_WIND CMA_PRES HKO_LAT HKO_LON HKO_CAT HKO_WIND HKO_PRES NEWDELHI_LAT NEWDELHI_LON NEWDELHI_GRADE NEWDELHI_WIND NEWDELHI_PRES NEWDELHI_CI NEWDELHI_DP NEWDELHI_POCI REUNION_LAT REUNION_LON REUNION_TYPE REUNION_WIND REUNION_PRES REUNION_TNUM REUNION_CI REUNION_RMW REUNION_R34_NE REUNION_R34_SE REUNION_R34_SW REUNION_R34_NW REUNION_R50_NE REUNION_R50_SE REUNION_R50_SW REUNION_R50_NW REUNION_R64_NE REUNION_R64_SE REUNION_R64_SW REUNION_R64_NW BOM_LAT BOM_LON BOM_TYPE BOM_WIND BOM_PRES BOM_TNUM BOM_CI BOM_RMW BOM_R34_NE BOM_R34_SE BOM_R34_SW BOM_R34_NW BOM_R50_NE BOM_R50_SE BOM_R50_SW BOM_R50_NW BOM_R64_NE BOM_R64_SE BOM_R64_SW BOM_R64_NW BOM_ROCI BOM_POCI BOM_EYE BOM_POS_METHOD BOM_PRES_METHOD NADI_LAT NADI_LON NADI_CAT NADI_WIND NADI_PRES WELLINGTON_LAT WELLINGTON_LON WELLINGTON_WIND WELLINGTON_PRES DS824_LAT DS824_LON DS824_STAGE DS824_WIND DS824_PRES TD9636_LAT TD9636_LON TD9636_STAGE TD9636_WIND TD9636_PRES TD9635_LAT TD9635_LON TD9635_WIND TD9635_PRES TD9635_ROCI NEUMANN_LAT NEUMANN_LON NEUMANN_CLASS NEUMANN_WIND NEUMANN_PRES MLC_LAT MLC_LON MLC_CLASS MLC_WIND MLC_PRES USA_GUST BOM_GUST BOM_GUST_PER REUNION_GUST REUNION_GUST_PER USA_SEAHGT USA_SEARAD_NE USA_SEARAD_SE USA_SEARAD_SW USA_SEARAD_NW STORM_SPEED STORM_DIR
1937203N19089 1937 25 NI BB NOT_NAMED 1937-07-22 00:00:00 TS 19.1000 89.0000 main 275 257 _________O____ -1 19.1000 89.0000 TC 30 3 0
1937203N19089 1937 25 NI BB NOT_NAMED 1937-07-22 03:00:00 TS 19.2650 88.9717 main 257 234 _________PO___ -1 19.3475 88.9575 TC 30 19.1000 89.0000 1 4 349
1937203N19089 1937 25 NI BB NOT_NAMED 1937-07-22 06:00:00 TS 19.5094 88.9169 main 234 212 _________OP___ -1 19.6000 88.9000 TC 30 19.3735 88.9423 1 5 346
1937203N19089 1937 25 NI BB NOT_NAMED 1937-07-22 09:00:00 TS 19.7632 88.8419 main 201 179 _________PP___ -1 19.8575 88.8150 TC 30 19.6376 88.8777 1 5 342
1937203N19089 1937 25 NI BB NOT_NAMED 1937-07-22 12:00:00 TS 19.9914 88.7496 main 180 156 _________OP___ -1 20.1000 88.7000 TC 30 19.8829 88.7992 1 5 336
1937203N19089 1937 25 NI BB NOT_NAMED 1937-07-22 15:00:00 TS 20.2112 88.6325 main 156 134 _________PO___ -1 20.3225 88.5650 TC 31 20.1000 88.7000 1 5 328
1937203N19089 1937 25 NI BB NOT_NAMED 1937-07-22 18:00:00 TS 20.3913 88.4870 main 134 123 _________OP___ -1 20.5000 88.4000 TC 32 20.2827 88.5739 1 4 317
1937203N19089 1937 25 NI BB NOT_NAMED 1937-07-22 21:00:00 TS 20.5261 88.3198 main 123 111 _________PP___ -1 20.6149 88.2224 TC 33 20.4373 88.4173 1 4 305
1937203N19089 1937 25 NI BB NOT_NAMED 1937-07-23 00:00:00 TS 20.6366 88.1135 main 112 93 _________OP___ -1 20.7000 88.0000 TC 34 20.5732 88.2270 1 5 297
1937203N19089 1937 25 NI BB NOT_NAMED 1937-07-23 03:00:00 TS 20.7463 87.8575 main 93 62 _________PO___ -1 20.7925 87.7149 TC 33 20.7000 88.0000 2 6 294
1937203N19089 1937 25 NI BB NOT_NAMED 1937-07-23 06:00:00 TS 20.8661 87.5679 main 63 38 _________OP___ -1 20.9000 87.4000 TC 32 20.8323 87.7359 2 6 295
1937203N19089 1937 25 NI BB NOT_NAMED 1937-07-23 09:00:00 TS 21.0038 87.2687 main 38 20 _________PP___ -1 21.0499 87.1000 TC 31 20.9576 87.4374 2 6 296
1937203N19089 1937 25 NI BB NOT_NAMED 1937-07-23 12:00:00 TS 21.1396 86.9601 main 20 0 _________OP___ -1 21.2000 86.8000 TC 30 21.0791 87.1202 2 6 293
1937203N19089 1937 25 NI BB NOT_NAMED 1937-07-23 15:00:00 TS 21.2500 86.6499 main 0 0 _________PO___ -1 21.2999 86.4999 TC 30 21.2000 86.8000 1 6 292
1937203N19089 1937 25 NI BB NOT_NAMED 1937-07-23 18:00:00 TS 21.3665 86.3480 main 0 0 _________OP___ -1 21.4000 86.2000 TC 30 21.3330 86.4959 1 6 295
1937203N19089 1937 25 NI BB NOT_NAMED 1937-07-23 21:00:00 TS 21.5074 86.0425 main 0 0 _________PP___ -1 21.5500 85.8925 TC 30 21.4649 86.1925 1 6 296
1937203N19089 1937 25 NI BB NOT_NAMED 1937-07-24 00:00:00 TS 21.6446 85.7464 main 0 0 _________OP___ -1 21.7000 85.6000 TC 30 21.5893 85.8928 1 6 295
1937203N19089 1937 25 NI BB NOT_NAMED 1937-07-24 03:00:00 TS 21.7574 85.4750 main 0 0 _________PO___ -1 21.8149 85.3499 TC 30 21.7000 85.6000 1 5 292
1937203N19089 1937 25 NI BB NOT_NAMED 1937-07-24 06:00:00 TS 21.8426 85.2067 main 0 0 _________OP___ -1 21.9000 85.1000 TC 30 21.7852 85.3135 1 5 286
1937203N19089 1937 25 NI BB NOT_NAMED 1937-07-24 09:00:00 TS 21.9037 84.9173 main 0 0 _________PP___ -1 21.9500 84.7999 TC 30 21.8573 85.0346 1 5 283
1937203N19089 1937 25 NI BB NOT_NAMED 1937-07-24 12:00:00 TS 21.9629 84.6317 main 0 0 _________OP___ -1 22.0000 84.5000 TC 30 21.9258 84.7635 1 5 286
1937203N19089 1937 25 NI BB NOT_NAMED 1937-07-24 15:00:00 TS 22.0462 84.3712 main 0 0 _________PO___ -1 22.0924 84.2425 TC 30 22.0000 84.5000 1 5 291
1937203N19089 1937 25 NI BB NOT_NAMED 1937-07-24 18:00:00 TS 22.1378 84.1474 main 0 0 _________OP___ -1 22.2000 84.0000 TC 30 22.0756 84.2949 1 4 294
1937203N19089 1937 25 NI BB NOT_NAMED 1937-07-24 21:00:00 TS 22.2228 83.9417 main 0 0 _________PP___ -1 22.2847 83.7947 TC 30 22.1610 84.0888 1 5 294
1937203N19089 1937 25 NI BB NOT_NAMED 1937-07-25 00:00:00 TS 22.3330 83.6692 main 0 0 _________OP___ -1 22.4000 83.5000 TC 30 22.2659 83.8383 1 7 293
1937203N19089 1937 25 NI BB NOT_NAMED 1937-07-25 03:00:00 TS 22.4925 83.2513 main 0 0 _________PO___ -1 22.5851 83.0026 TC 30 22.4000 83.5000 1 10 292
1937203N19089 1937 25 NI BB NOT_NAMED 1937-07-25 06:00:00 TS 22.6904 82.6915 main 0 0 _________OP___ -1 22.8000 82.4000 TC 30 22.5808 82.9829 1 12 290
1937203N19089 1937 25 NI BB NOT_NAMED 1937-07-25 09:00:00 TS 22.8974 82.0758 main 0 0 _________PP___ -1 23.0077 81.7701 TC 30 22.7871 82.3815 1 12 290
1937203N19089 1937 25 NI BB NOT_NAMED 1937-07-25 12:00:00 TS 23.0998 81.4821 main 0 0 _________OP___ -1 23.2000 81.2000 TC 30 22.9996 81.7641 1 11 291
1937203N19089 1937 25 NI BB NOT_NAMED 1937-07-25 15:00:00 TS 23.2786 81.0061 main 0 0 _________PO___ -1 23.3571 80.8122 TC 30 23.2000 81.2000 1 8 293
1937203N19089 1937 25 NI BB NOT_NAMED 1937-07-25 18:00:00 TS 23.4286 80.6384 main 0 0 _________OP___ -1 23.5000 80.5000 TC 30 23.3751 80.7422 1 7 294
1937203N19089 1937 25 NI BB NOT_NAMED 1937-07-25 21:00:00 TS 23.5763 80.2912 main 0 0 _________PP___ -1 23.6478 80.1628 TC 30 23.5287 80.3768 1 7 295
1937203N19089 1937 25 NI BB NOT_NAMED 1937-07-26 00:00:00 TS 23.7120 79.9821 main 0 0 _________OP___ -1 23.8000 79.8000 TC 30 23.6679 80.0731 1 5 296
1937203N19089 1937 25 NI BB NOT_NAMED 1937-07-26 03:00:00 NR 23.8000 79.8000 main 0 __________O___ -1 TC 23.8000 79.8000 1 4 298

About IBTrACS Database

This database is a web-friendly format of International Best Track Archive for Climate Stewardship (IBTrACS), a global best track data archive curated by NOAA dating back to 1842.

Updated: 2021-10-21